sensor_id;sensor_type;location;lat;lon;timestamp;temperature;humidity
47600;DHT22;33323;52.124;6.018;2023-04-24T00:02:00;9.60;99.90
47600;DHT22;33323;52.124;6.018;2023-04-24T00:04:27;9.60;99.90
47600;DHT22;33323;52.124;6.018;2023-04-24T00:06:55;9.60;99.90
47600;DHT22;33323;52.124;6.018;2023-04-24T00:09:23;9.70;99.90
47600;DHT22;33323;52.124;6.018;2023-04-24T00:11:51;9.60;99.90
47600;DHT22;33323;52.124;6.018;2023-04-24T00:14:18;9.70;99.90
47600;DHT22;33323;52.124;6.018;2023-04-24T00:16:45;9.60;99.90
47600;DHT22;33323;52.124;6.018;2023-04-24T00:19:12;9.70;99.90
47600;DHT22;33323;52.124;6.018;2023-04-24T00:21:40;9.70;99.90
47600;DHT22;33323;52.124;6.018;2023-04-24T00:24:08;9.80;99.90
47600;DHT22;33323;52.124;6.018;2023-04-24T00:26:38;9.80;99.90
47600;DHT22;33323;52.124;6.018;2023-04-24T00:29:05;9.70;99.90
47600;DHT22;33323;52.124;6.018;2023-04-24T00:31:32;9.70;99.90
47600;DHT22;33323;52.124;6.018;2023-04-24T00:34:02;9.70;99.90
47600;DHT22;33323;52.124;6.018;2023-04-24T00:36:29;9.70;99.90
47600;DHT22;33323;52.124;6.018;2023-04-24T00:38:57;9.60;99.90
47600;DHT22;33323;52.124;6.018;2023-04-24T00:41:25;9.70;99.90
47600;DHT22;33323;52.124;6.018;2023-04-24T00:43:52;9.70;99.90
47600;DHT22;33323;52.124;6.018;2023-04-24T00:46:19;9.70;99.90
47600;DHT22;33323;52.124;6.018;2023-04-24T00:48:48;9.70;99.90
47600;DHT22;33323;52.124;6.018;2023-04-24T00:51:15;9.70;99.90
47600;DHT22;33323;52.124;6.018;2023-04-24T00:53:42;9.70;99.90
47600;DHT22;33323;52.124;6.018;2023-04-24T00:56:09;9.70;99.90
47600;DHT22;33323;52.124;6.018;2023-04-24T00:58:36;9.70;99.90
47600;DHT22;33323;52.124;6.018;2023-04-24T01:01:04;9.70;99.90
47600;DHT22;33323;52.124;6.018;2023-04-24T01:03:34;9.70;99.90
47600;DHT22;33323;52.124;6.018;2023-04-24T01:06:05;9.60;99.90
47600;DHT22;33323;52.124;6.018;2023-04-24T01:08:32;9.60;99.90
47600;DHT22;33323;52.124;6.018;2023-04-24T01:11:03;9.70;99.90
47600;DHT22;33323;52.124;6.018;2023-04-24T01:13:32;9.70;99.90
47600;DHT22;33323;52.124;6.018;2023-04-24T01:16:00;9.70;99.90
47600;DHT22;33323;52.124;6.018;2023-04-24T01:18:28;9.70;99.90
47600;DHT22;33323;52.124;6.018;2023-04-24T01:20:58;9.60;99.90
47600;DHT22;33323;52.124;6.018;2023-04-24T01:23:26;9.60;99.90
47600;DHT22;33323;52.124;6.018;2023-04-24T01:25:54;9.50;99.90
47600;DHT22;33323;52.124;6.018;2023-04-24T01:28:21;9.50;99.90
47600;DHT22;33323;52.124;6.018;2023-04-24T01:30:48;9.50;99.90
47600;DHT22;33323;52.124;6.018;2023-04-24T01:33:16;9.40;99.90
47600;DHT22;33323;52.124;6.018;2023-04-24T01:35:43;9.50;99.90
47600;DHT22;33323;52.124;6.018;2023-04-24T01:38:10;9.40;99.90
47600;DHT22;33323;52.124;6.018;2023-04-24T01:40:37;9.40;99.90
47600;DHT22;33323;52.124;6.018;2023-04-24T01:43:05;9.40;99.90
47600;DHT22;33323;52.124;6.018;2023-04-24T01:45:32;9.30;99.90
47600;DHT22;33323;52.124;6.018;2023-04-24T01:48:00;9.30;99.90
47600;DHT22;33323;52.124;6.018;2023-04-24T01:50:28;9.20;99.90
47600;DHT22;33323;52.124;6.018;2023-04-24T01:52:55;9.20;99.90
47600;DHT22;33323;52.124;6.018;2023-04-24T01:55:22;9.20;99.90
47600;DHT22;33323;52.124;6.018;2023-04-24T01:57:49;9.10;99.90
47600;DHT22;33323;52.124;6.018;2023-04-24T02:00:18;9.20;99.90
47600;DHT22;33323;52.124;6.018;2023-04-24T02:02:45;9.20;99.90
47600;DHT22;33323;52.124;6.018;2023-04-24T02:05:14;9.10;99.90
47600;DHT22;33323;52.124;6.018;2023-04-24T02:07:41;9.20;99.90
47600;DHT22;33323;52.124;6.018;2023-04-24T02:10:09;9.10;99.90
47600;DHT22;33323;52.124;6.018;2023-04-24T02:12:41;9.10;99.90
47600;DHT22;33323;52.124;6.018;2023-04-24T02:15:09;9.10;99.90
47600;DHT22;33323;52.124;6.018;2023-04-24T02:17:36;9.10;99.90
47600;DHT22;33323;52.124;6.018;2023-04-24T02:20:05;9.10;99.90
47600;DHT22;33323;52.124;6.018;2023-04-24T02:22:35;9.00;99.90
47600;DHT22;33323;52.124;6.018;2023-04-24T02:25:02;9.10;99.90
47600;DHT22;33323;52.124;6.018;2023-04-24T02:27:29;9.20;99.90
47600;DHT22;33323;52.124;6.018;2023-04-24T02:29:56;9.20;99.90
47600;DHT22;33323;52.124;6.018;2023-04-24T02:32:23;9.20;99.90
47600;DHT22;33323;52.124;6.018;2023-04-24T02:34:50;9.20;99.90
47600;DHT22;33323;52.124;6.018;2023-04-24T02:37:18;9.30;99.90
47600;DHT22;33323;52.124;6.018;2023-04-24T02:39:44;9.20;99.90
47600;DHT22;33323;52.124;6.018;2023-04-24T02:42:11;9.20;99.90
47600;DHT22;33323;52.124;6.018;2023-04-24T02:44:38;9.20;99.90
47600;DHT22;33323;52.124;6.018;2023-04-24T02:47:05;9.20;99.90
47600;DHT22;33323;52.124;6.018;2023-04-24T02:49:32;9.20;99.90
47600;DHT22;33323;52.124;6.018;2023-04-24T02:51:59;9.20;99.90
47600;DHT22;33323;52.124;6.018;2023-04-24T02:54:26;9.30;99.90
47600;DHT22;33323;52.124;6.018;2023-04-24T02:56:53;9.20;99.90
47600;DHT22;33323;52.124;6.018;2023-04-24T02:59:20;9.30;99.90
47600;DHT22;33323;52.124;6.018;2023-04-24T03:01:48;9.40;99.90
47600;DHT22;33323;52.124;6.018;2023-04-24T03:04:15;9.40;99.90
47600;DHT22;33323;52.124;6.018;2023-04-24T03:06:42;9.40;99.90
47600;DHT22;33323;52.124;6.018;2023-04-24T03:09:09;9.40;99.90
47600;DHT22;33323;52.124;6.018;2023-04-24T03:11:36;9.30;99.90
47600;DHT22;33323;52.124;6.018;2023-04-24T03:14:03;9.30;99.90
47600;DHT22;33323;52.124;6.018;2023-04-24T03:16:30;9.40;99.90
47600;DHT22;33323;52.124;6.018;2023-04-24T03:18:57;9.40;99.90
47600;DHT22;33323;52.124;6.018;2023-04-24T03:21:28;9.40;99.90
47600;DHT22;33323;52.124;6.018;2023-04-24T03:23:55;9.50;99.90
47600;DHT22;33323;52.124;6.018;2023-04-24T03:26:22;9.40;99.90
47600;DHT22;33323;52.124;6.018;2023-04-24T03:29:01;9.40;99.90
47600;DHT22;33323;52.124;6.018;2023-04-24T03:31:29;9.40;99.90
47600;DHT22;33323;52.124;6.018;2023-04-24T03:33:57;9.40;99.90
47600;DHT22;33323;52.124;6.018;2023-04-24T03:36:24;9.40;99.90
47600;DHT22;33323;52.124;6.018;2023-04-24T03:38:53;9.40;99.90
47600;DHT22;33323;52.124;6.018;2023-04-24T03:41:24;9.40;99.90
47600;DHT22;33323;52.124;6.018;2023-04-24T03:44:14;9.40;99.90
47600;DHT22;33323;52.124;6.018;2023-04-24T03:46:41;9.40;99.90
47600;DHT22;33323;52.124;6.018;2023-04-24T03:49:08;9.40;99.90
47600;DHT22;33323;52.124;6.018;2023-04-24T03:51:39;9.30;99.90
47600;DHT22;33323;52.124;6.018;2023-04-24T03:54:14;9.30;99.90
47600;DHT22;33323;52.124;6.018;2023-04-24T03:56:41;9.30;99.90
47600;DHT22;33323;52.124;6.018;2023-04-24T03:59:09;9.30;99.90
47600;DHT22;33323;52.124;6.018;2023-04-24T04:01:37;9.30;99.90
47600;DHT22;33323;52.124;6.018;2023-04-24T04:04:10;9.30;99.90
47600;DHT22;33323;52.124;6.018;2023-04-24T04:06:38;9.30;99.90
47600;DHT22;33323;52.124;6.018;2023-04-24T04:09:06;9.30;99.90
47600;DHT22;33323;52.124;6.018;2023-04-24T04:11:34;9.20;99.90
47600;DHT22;33323;52.124;6.018;2023-04-24T04:14:02;9.20;99.90
47600;DHT22;33323;52.124;6.018;2023-04-24T04:16:30;9.20;99.90
47600;DHT22;33323;52.124;6.018;2023-04-24T04:19:02;9.20;99.90
47600;DHT22;33323;52.124;6.018;2023-04-24T04:21:30;9.20;99.90
47600;DHT22;33323;52.124;6.018;2023-04-24T04:24:11;9.20;99.90
47600;DHT22;33323;52.124;6.018;2023-04-24T04:26:43;9.20;99.90
47600;DHT22;33323;52.124;6.018;2023-04-24T04:29:21;9.20;99.90
47600;DHT22;33323;52.124;6.018;2023-04-24T04:31:50;9.20;99.90
47600;DHT22;33323;52.124;6.018;2023-04-24T04:34:17;9.20;99.90
47600;DHT22;33323;52.124;6.018;2023-04-24T04:36:45;9.20;99.90
47600;DHT22;33323;52.124;6.018;2023-04-24T04:39:41;9.20;99.90
47600;DHT22;33323;52.124;6.018;2023-04-24T04:42:31;9.20;99.90
47600;DHT22;33323;52.124;6.018;2023-04-24T04:44:59;9.20;99.90
47600;DHT22;33323;52.124;6.018;2023-04-24T04:47:37;9.20;99.90
47600;DHT22;33323;52.124;6.018;2023-04-24T04:50:04;9.20;99.90
47600;DHT22;33323;52.124;6.018;2023-04-24T04:52:32;9.10;99.90
47600;DHT22;33323;52.124;6.018;2023-04-24T04:55:10;9.10;99.90
47600;DHT22;33323;52.124;6.018;2023-04-24T04:58:03;9.10;99.90
47600;DHT22;33323;52.124;6.018;2023-04-24T05:00:31;9.10;99.90
47600;DHT22;33323;52.124;6.018;2023-04-24T05:03:06;9.10;99.90
47600;DHT22;33323;52.124;6.018;2023-04-24T05:05:47;9.00;99.90
47600;DHT22;33323;52.124;6.018;2023-04-24T05:08:16;9.00;99.90
47600;DHT22;33323;52.124;6.018;2023-04-24T05:10:52;9.00;99.90
47600;DHT22;33323;52.124;6.018;2023-04-24T05:13:21;8.90;99.90
47600;DHT22;33323;52.124;6.018;2023-04-24T05:16:07;9.00;99.90
47600;DHT22;33323;52.124;6.018;2023-04-24T05:18:34;9.10;99.90
47600;DHT22;33323;52.124;6.018;2023-04-24T05:21:02;9.10;99.90
47600;DHT22;33323;52.124;6.018;2023-04-24T05:23:29;9.00;99.90
47600;DHT22;33323;52.124;6.018;2023-04-24T05:25:57;9.10;99.90
47600;DHT22;33323;52.124;6.018;2023-04-24T05:28:24;9.10;99.90
47600;DHT22;33323;52.124;6.018;2023-04-24T05:31:04;9.00;99.90
47600;DHT22;33323;52.124;6.018;2023-04-24T05:33:31;8.90;99.90
47600;DHT22;33323;52.124;6.018;2023-04-24T05:35:58;9.00;99.90
47600;DHT22;33323;52.124;6.018;2023-04-24T05:38:26;9.00;99.90
47600;DHT22;33323;52.124;6.018;2023-04-24T05:40:53;9.00;99.90
47600;DHT22;33323;52.124;6.018;2023-04-24T05:43:20;9.10;99.90
47600;DHT22;33323;52.124;6.018;2023-04-24T05:45:48;9.10;99.90
47600;DHT22;33323;52.124;6.018;2023-04-24T05:48:17;9.10;99.90
47600;DHT22;33323;52.124;6.018;2023-04-24T05:50:44;9.20;99.90
47600;DHT22;33323;52.124;6.018;2023-04-24T05:53:12;9.20;99.90
47600;DHT22;33323;52.124;6.018;2023-04-24T05:55:39;9.30;99.90
47600;DHT22;33323;52.124;6.018;2023-04-24T05:58:06;9.40;99.90
47600;DHT22;33323;52.124;6.018;2023-04-24T06:00:35;9.40;99.90
47600;DHT22;33323;52.124;6.018;2023-04-24T06:03:06;9.50;99.90
47600;DHT22;33323;52.124;6.018;2023-04-24T06:05:34;9.50;99.90
47600;DHT22;33323;52.124;6.018;2023-04-24T06:08:02;9.60;99.90
47600;DHT22;33323;52.124;6.018;2023-04-24T06:10:36;9.40;99.90
47600;DHT22;33323;52.124;6.018;2023-04-24T06:13:05;9.30;99.90
47600;DHT22;33323;52.124;6.018;2023-04-24T06:15:35;9.20;99.90
47600;DHT22;33323;52.124;6.018;2023-04-24T06:18:12;9.20;99.90
47600;DHT22;33323;52.124;6.018;2023-04-24T06:20:40;9.20;99.90
47600;DHT22;33323;52.124;6.018;2023-04-24T06:23:09;9.20;99.90
47600;DHT22;33323;52.124;6.018;2023-04-24T06:25:36;9.20;99.90
47600;DHT22;33323;52.124;6.018;2023-04-24T06:28:04;9.20;99.90
47600;DHT22;33323;52.124;6.018;2023-04-24T06:30:32;9.10;99.90
47600;DHT22;33323;52.124;6.018;2023-04-24T06:32:59;9.10;99.90
47600;DHT22;33323;52.124;6.018;2023-04-24T06:35:36;9.20;99.90
47600;DHT22;33323;52.124;6.018;2023-04-24T06:38:05;9.20;99.90
47600;DHT22;33323;52.124;6.018;2023-04-24T06:40:32;9.20;99.90
47600;DHT22;33323;52.124;6.018;2023-04-24T06:43:00;9.20;99.90
47600;DHT22;33323;52.124;6.018;2023-04-24T06:45:29;9.20;99.90
47600;DHT22;33323;52.124;6.018;2023-04-24T06:47:57;9.30;99.90
47600;DHT22;33323;52.124;6.018;2023-04-24T06:50:24;9.30;99.90
47600;DHT22;33323;52.124;6.018;2023-04-24T06:52:51;9.30;99.90
47600;DHT22;33323;52.124;6.018;2023-04-24T06:55:19;9.30;99.90
47600;DHT22;33323;52.124;6.018;2023-04-24T06:57:46;9.30;99.90
47600;DHT22;33323;52.124;6.018;2023-04-24T07:00:13;9.30;99.90
47600;DHT22;33323;52.124;6.018;2023-04-24T07:02:40;9.30;99.90
47600;DHT22;33323;52.124;6.018;2023-04-24T07:05:08;9.30;99.90
47600;DHT22;33323;52.124;6.018;2023-04-24T07:07:35;9.30;99.90
47600;DHT22;33323;52.124;6.018;2023-04-24T07:10:05;9.30;99.90
47600;DHT22;33323;52.124;6.018;2023-04-24T07:12:32;9.30;99.90
47600;DHT22;33323;52.124;6.018;2023-04-24T07:15:00;9.40;99.90
47600;DHT22;33323;52.124;6.018;2023-04-24T07:17:27;9.40;99.90
47600;DHT22;33323;52.124;6.018;2023-04-24T07:19:54;9.40;99.90
47600;DHT22;33323;52.124;6.018;2023-04-24T07:22:22;9.40;99.90
47600;DHT22;33323;52.124;6.018;2023-04-24T07:24:49;9.40;99.90
47600;DHT22;33323;52.124;6.018;2023-04-24T07:27:16;9.40;99.90
47600;DHT22;33323;52.124;6.018;2023-04-24T07:29:43;9.30;99.90
47600;DHT22;33323;52.124;6.018;2023-04-24T07:32:11;9.40;99.90
47600;DHT22;33323;52.124;6.018;2023-04-24T07:34:38;9.30;99.90
47600;DHT22;33323;52.124;6.018;2023-04-24T07:37:05;9.30;99.90
47600;DHT22;33323;52.124;6.018;2023-04-24T07:39:33;9.30;99.90
47600;DHT22;33323;52.124;6.018;2023-04-24T07:42:00;9.30;99.90
47600;DHT22;33323;52.124;6.018;2023-04-24T07:44:28;9.30;99.90
47600;DHT22;33323;52.124;6.018;2023-04-24T07:46:56;9.20;99.90
47600;DHT22;33323;52.124;6.018;2023-04-24T07:49:23;9.30;99.90
47600;DHT22;33323;52.124;6.018;2023-04-24T07:51:52;9.30;99.90
47600;DHT22;33323;52.124;6.018;2023-04-24T07:54:19;9.30;99.90
47600;DHT22;33323;52.124;6.018;2023-04-24T07:56:46;9.30;99.90
47600;DHT22;33323;52.124;6.018;2023-04-24T07:59:13;9.30;99.90
47600;DHT22;33323;52.124;6.018;2023-04-24T08:01:41;9.20;99.90
47600;DHT22;33323;52.124;6.018;2023-04-24T08:04:08;9.20;99.90
47600;DHT22;33323;52.124;6.018;2023-04-24T08:06:35;9.10;99.90
47600;DHT22;33323;52.124;6.018;2023-04-24T08:09:03;9.20;99.90
47600;DHT22;33323;52.124;6.018;2023-04-24T08:11:30;9.10;99.90
47600;DHT22;33323;52.124;6.018;2023-04-24T08:13:57;9.20;99.90
47600;DHT22;33323;52.124;6.018;2023-04-24T08:16:24;9.20;99.90
47600;DHT22;33323;52.124;6.018;2023-04-24T08:18:53;9.10;99.90
47600;DHT22;33323;52.124;6.018;2023-04-24T08:21:20;9.10;99.90
47600;DHT22;33323;52.124;6.018;2023-04-24T08:23:47;9.00;99.90
47600;DHT22;33323;52.124;6.018;2023-04-24T08:26:14;9.00;99.90
47600;DHT22;33323;52.124;6.018;2023-04-24T08:28:42;9.00;99.90
47600;DHT22;33323;52.124;6.018;2023-04-24T08:31:09;8.90;99.90
47600;DHT22;33323;52.124;6.018;2023-04-24T08:33:36;8.90;99.90
47600;DHT22;33323;52.124;6.018;2023-04-24T08:36:05;8.90;99.90
47600;DHT22;33323;52.124;6.018;2023-04-24T08:38:33;8.90;99.90
47600;DHT22;33323;52.124;6.018;2023-04-24T08:41:01;8.80;99.90
47600;DHT22;33323;52.124;6.018;2023-04-24T08:43:28;8.80;99.90
47600;DHT22;33323;52.124;6.018;2023-04-24T08:45:56;8.80;99.90
47600;DHT22;33323;52.124;6.018;2023-04-24T08:48:24;8.90;99.90
47600;DHT22;33323;52.124;6.018;2023-04-24T08:50:59;8.90;99.90
47600;DHT22;33323;52.124;6.018;2023-04-24T08:53:27;9.00;99.90
47600;DHT22;33323;52.124;6.018;2023-04-24T08:55:55;9.00;99.90
47600;DHT22;33323;52.124;6.018;2023-04-24T08:58:25;9.00;99.90
47600;DHT22;33323;52.124;6.018;2023-04-24T09:00:57;9.00;99.90
47600;DHT22;33323;52.124;6.018;2023-04-24T09:03:27;9.10;99.90
47600;DHT22;33323;52.124;6.018;2023-04-24T09:05:55;9.10;99.90
47600;DHT22;33323;52.124;6.018;2023-04-24T09:08:25;9.00;99.90
47600;DHT22;33323;52.124;6.018;2023-04-24T09:10:53;9.00;99.90
47600;DHT22;33323;52.124;6.018;2023-04-24T09:13:20;9.00;99.90
47600;DHT22;33323;52.124;6.018;2023-04-24T09:15:48;9.00;99.90
47600;DHT22;33323;52.124;6.018;2023-04-24T09:18:15;9.00;99.90
47600;DHT22;33323;52.124;6.018;2023-04-24T09:21:08;9.00;99.90
47600;DHT22;33323;52.124;6.018;2023-04-24T09:23:35;8.90;99.90
47600;DHT22;33323;52.124;6.018;2023-04-24T09:26:03;8.80;99.90
47600;DHT22;33323;52.124;6.018;2023-04-24T09:28:38;8.70;99.90
47600;DHT22;33323;52.124;6.018;2023-04-24T09:31:14;8.80;99.90
47600;DHT22;33323;52.124;6.018;2023-04-24T09:33:56;8.90;99.90
47600;DHT22;33323;52.124;6.018;2023-04-24T09:36:32;8.90;99.90
47600;DHT22;33323;52.124;6.018;2023-04-24T09:39:07;8.80;99.90
47600;DHT22;33323;52.124;6.018;2023-04-24T09:44:24;8.80;99.90
47600;DHT22;33323;52.124;6.018;2023-04-24T09:46:57;8.90;99.90
47600;DHT22;33323;52.124;6.018;2023-04-24T09:52:10;9.00;99.90
47600;DHT22;33323;52.124;6.018;2023-04-24T09:54:39;9.10;99.90
47600;DHT22;33323;52.124;6.018;2023-04-24T09:57:09;9.10;99.90
47600;DHT22;33323;52.124;6.018;2023-04-24T09:59:42;9.00;99.90
47600;DHT22;33323;52.124;6.018;2023-04-24T10:02:18;9.00;99.90
47600;DHT22;33323;52.124;6.018;2023-04-24T10:04:56;9.20;99.90
47600;DHT22;33323;52.124;6.018;2023-04-24T10:07:26;9.30;99.90
47600;DHT22;33323;52.124;6.018;2023-04-24T10:09:54;9.50;99.90
47600;DHT22;33323;52.124;6.018;2023-04-24T10:12:23;9.70;99.90
47600;DHT22;33323;52.124;6.018;2023-04-24T10:14:50;9.90;99.90
47600;DHT22;33323;52.124;6.018;2023-04-24T10:17:18;9.90;99.90
47600;DHT22;33323;52.124;6.018;2023-04-24T10:19:48;10.00;99.90
47600;DHT22;33323;52.124;6.018;2023-04-24T10:22:15;9.90;99.90
47600;DHT22;33323;52.124;6.018;2023-04-24T10:24:45;9.70;99.90
47600;DHT22;33323;52.124;6.018;2023-04-24T10:27:14;9.60;99.90
47600;DHT22;33323;52.124;6.018;2023-04-24T10:29:43;9.60;99.90
47600;DHT22;33323;52.124;6.018;2023-04-24T10:32:11;9.70;99.90
47600;DHT22;33323;52.124;6.018;2023-04-24T10:34:38;9.90;99.90
47600;DHT22;33323;52.124;6.018;2023-04-24T10:37:05;10.10;99.90
47600;DHT22;33323;52.124;6.018;2023-04-24T10:39:33;10.30;99.90
47600;DHT22;33323;52.124;6.018;2023-04-24T10:42:02;10.70;99.90
47600;DHT22;33323;52.124;6.018;2023-04-24T10:44:36;10.90;99.90
47600;DHT22;33323;52.124;6.018;2023-04-24T10:47:04;10.60;99.90
47600;DHT22;33323;52.124;6.018;2023-04-24T10:49:32;10.40;99.90
47600;DHT22;33323;52.124;6.018;2023-04-24T10:52:03;10.30;99.90
47600;DHT22;33323;52.124;6.018;2023-04-24T10:54:45;10.30;99.90
47600;DHT22;33323;52.124;6.018;2023-04-24T11:02:40;10.40;99.90
47600;DHT22;33323;52.124;6.018;2023-04-24T11:05:10;10.60;99.90
47600;DHT22;33323;52.124;6.018;2023-04-24T11:08:14;10.70;99.90
47600;DHT22;33323;52.124;6.018;2023-04-24T11:10:56;10.90;99.90
47600;DHT22;33323;52.124;6.018;2023-04-24T11:13:26;10.90;99.90
47600;DHT22;33323;52.124;6.018;2023-04-24T11:16:13;10.70;99.90
47600;DHT22;33323;52.124;6.018;2023-04-24T11:18:42;10.70;99.90
47600;DHT22;33323;52.124;6.018;2023-04-24T11:21:17;10.50;99.90
47600;DHT22;33323;52.124;6.018;2023-04-24T11:23:45;10.60;99.90
47600;DHT22;33323;52.124;6.018;2023-04-24T11:26:18;10.90;99.90
47600;DHT22;33323;52.124;6.018;2023-04-24T11:28:48;11.20;99.90
47600;DHT22;33323;52.124;6.018;2023-04-24T11:31:38;11.30;99.90
47600;DHT22;33323;52.124;6.018;2023-04-24T11:34:15;11.20;99.90
47600;DHT22;33323;52.124;6.018;2023-04-24T11:36:44;11.00;99.90
47600;DHT22;33323;52.124;6.018;2023-04-24T11:39:12;10.90;99.90
47600;DHT22;33323;52.124;6.018;2023-04-24T11:41:39;10.60;99.90
47600;DHT22;33323;52.124;6.018;2023-04-24T11:44:09;10.50;99.90
47600;DHT22;33323;52.124;6.018;2023-04-24T11:46:38;10.40;99.90
47600;DHT22;33323;52.124;6.018;2023-04-24T11:49:08;10.20;99.90
47600;DHT22;33323;52.124;6.018;2023-04-24T11:51:36;10.10;99.90
47600;DHT22;33323;52.124;6.018;2023-04-24T11:54:19;9.90;99.90
47600;DHT22;33323;52.124;6.018;2023-04-24T11:56:49;9.60;99.90
47600;DHT22;33323;52.124;6.018;2023-04-24T11:59:17;9.40;99.90
47600;DHT22;33323;52.124;6.018;2023-04-24T12:01:45;9.50;99.90
47600;DHT22;33323;52.124;6.018;2023-04-24T12:04:13;9.80;99.90
47600;DHT22;33323;52.124;6.018;2023-04-24T12:06:59;10.10;99.90
47600;DHT22;33323;52.124;6.018;2023-04-24T12:09:27;10.60;99.90
47600;DHT22;33323;52.124;6.018;2023-04-24T12:11:57;10.80;99.90
47600;DHT22;33323;52.124;6.018;2023-04-24T12:14:25;11.00;99.90
47600;DHT22;33323;52.124;6.018;2023-04-24T12:16:52;11.10;99.90
47600;DHT22;33323;52.124;6.018;2023-04-24T12:19:21;11.40;99.90
47600;DHT22;33323;52.124;6.018;2023-04-24T12:22:00;11.60;99.90
47600;DHT22;33323;52.124;6.018;2023-04-24T12:24:29;11.90;99.90
47600;DHT22;33323;52.124;6.018;2023-04-24T12:26:57;11.80;99.90
47600;DHT22;33323;52.124;6.018;2023-04-24T12:29:24;11.80;99.90
47600;DHT22;33323;52.124;6.018;2023-04-24T12:31:52;11.60;99.90
47600;DHT22;33323;52.124;6.018;2023-04-24T12:34:22;11.40;99.90
47600;DHT22;33323;52.124;6.018;2023-04-24T12:36:50;11.30;99.90
47600;DHT22;33323;52.124;6.018;2023-04-24T12:39:18;11.20;99.90
47600;DHT22;33323;52.124;6.018;2023-04-24T12:41:56;11.00;99.90
47600;DHT22;33323;52.124;6.018;2023-04-24T12:44:33;10.90;99.90
47600;DHT22;33323;52.124;6.018;2023-04-24T12:47:01;10.90;99.90
47600;DHT22;33323;52.124;6.018;2023-04-24T12:49:30;10.90;99.90
47600;DHT22;33323;52.124;6.018;2023-04-24T12:51:57;10.70;99.90
47600;DHT22;33323;52.124;6.018;2023-04-24T12:54:25;10.80;99.90
47600;DHT22;33323;52.124;6.018;2023-04-24T12:56:52;10.80;99.90
47600;DHT22;33323;52.124;6.018;2023-04-24T12:59:19;10.80;99.90
47600;DHT22;33323;52.124;6.018;2023-04-24T13:01:46;10.80;99.90
47600;DHT22;33323;52.124;6.018;2023-04-24T13:04:13;10.80;99.90
47600;DHT22;33323;52.124;6.018;2023-04-24T13:06:41;10.90;99.90
47600;DHT22;33323;52.124;6.018;2023-04-24T13:09:08;10.80;99.90
47600;DHT22;33323;52.124;6.018;2023-04-24T13:11:35;10.90;99.90
47600;DHT22;33323;52.124;6.018;2023-04-24T13:14:02;10.90;99.90
47600;DHT22;33323;52.124;6.018;2023-04-24T13:16:29;10.80;99.90
47600;DHT22;33323;52.124;6.018;2023-04-24T13:18:56;10.70;99.90
47600;DHT22;33323;52.124;6.018;2023-04-24T13:21:23;10.70;99.90
47600;DHT22;33323;52.124;6.018;2023-04-24T13:23:50;10.60;99.90
47600;DHT22;33323;52.124;6.018;2023-04-24T13:26:18;10.60;99.90
47600;DHT22;33323;52.124;6.018;2023-04-24T13:28:48;10.50;99.90
47600;DHT22;33323;52.124;6.018;2023-04-24T13:31:15;10.40;99.90
47600;DHT22;33323;52.124;6.018;2023-04-24T13:33:42;10.40;99.90
47600;DHT22;33323;52.124;6.018;2023-04-24T13:36:10;10.40;99.90
47600;DHT22;33323;52.124;6.018;2023-04-24T13:38:37;10.30;99.90
47600;DHT22;33323;52.124;6.018;2023-04-24T13:41:04;10.20;99.90
47600;DHT22;33323;52.124;6.018;2023-04-24T13:43:31;10.10;99.90
47600;DHT22;33323;52.124;6.018;2023-04-24T13:45:59;10.00;99.90
47600;DHT22;33323;52.124;6.018;2023-04-24T13:48:29;9.90;99.90
47600;DHT22;33323;52.124;6.018;2023-04-24T13:50:56;9.90;99.90
47600;DHT22;33323;52.124;6.018;2023-04-24T13:53:24;9.70;99.90
47600;DHT22;33323;52.124;6.018;2023-04-24T13:55:51;9.50;99.90
47600;DHT22;33323;52.124;6.018;2023-04-24T13:58:18;9.50;99.90
47600;DHT22;33323;52.124;6.018;2023-04-24T14:00:45;9.60;99.90
47600;DHT22;33323;52.124;6.018;2023-04-24T14:03:12;9.80;99.90
47600;DHT22;33323;52.124;6.018;2023-04-24T14:05:40;10.10;99.90
47600;DHT22;33323;52.124;6.018;2023-04-24T14:08:07;10.10;99.90
47600;DHT22;33323;52.124;6.018;2023-04-24T14:10:34;10.20;99.90
47600;DHT22;33323;52.124;6.018;2023-04-24T14:13:02;10.30;99.90
47600;DHT22;33323;52.124;6.018;2023-04-24T14:15:29;10.60;99.90
47600;DHT22;33323;52.124;6.018;2023-04-24T14:17:56;10.90;99.90
47600;DHT22;33323;52.124;6.018;2023-04-24T14:20:23;11.10;99.90
47600;DHT22;33323;52.124;6.018;2023-04-24T14:22:51;11.10;99.90
47600;DHT22;33323;52.124;6.018;2023-04-24T14:25:18;11.00;99.90
47600;DHT22;33323;52.124;6.018;2023-04-24T14:27:45;10.80;99.90
47600;DHT22;33323;52.124;6.018;2023-04-24T14:30:13;10.70;99.90
47600;DHT22;33323;52.124;6.018;2023-04-24T14:32:42;10.80;99.90
47600;DHT22;33323;52.124;6.018;2023-04-24T14:35:09;10.70;99.90
47600;DHT22;33323;52.124;6.018;2023-04-24T14:37:36;10.60;99.90
47600;DHT22;33323;52.124;6.018;2023-04-24T14:40:04;10.50;99.90
47600;DHT22;33323;52.124;6.018;2023-04-24T14:42:37;10.60;99.90
47600;DHT22;33323;52.124;6.018;2023-04-24T14:45:04;11.10;99.90
47600;DHT22;33323;52.124;6.018;2023-04-24T14:47:32;11.30;99.90
47600;DHT22;33323;52.124;6.018;2023-04-24T14:49:59;11.30;99.90
47600;DHT22;33323;52.124;6.018;2023-04-24T14:52:26;11.30;99.90
47600;DHT22;33323;52.124;6.018;2023-04-24T14:54:53;11.30;99.90
47600;DHT22;33323;52.124;6.018;2023-04-24T14:57:21;11.10;99.90
47600;DHT22;33323;52.124;6.018;2023-04-24T14:59:49;11.10;99.90
47600;DHT22;33323;52.124;6.018;2023-04-24T15:02:16;10.90;99.90
47600;DHT22;33323;52.124;6.018;2023-04-24T15:04:46;10.70;99.90
47600;DHT22;33323;52.124;6.018;2023-04-24T15:07:14;10.60;99.90
47600;DHT22;33323;52.124;6.018;2023-04-24T15:09:41;10.50;99.90
47600;DHT22;33323;52.124;6.018;2023-04-24T15:12:09;10.60;99.90
47600;DHT22;33323;52.124;6.018;2023-04-24T15:14:39;10.50;99.90
47600;DHT22;33323;52.124;6.018;2023-04-24T15:17:06;10.40;99.90
47600;DHT22;33323;52.124;6.018;2023-04-24T15:19:34;10.40;99.90
47600;DHT22;33323;52.124;6.018;2023-04-24T15:22:01;10.40;99.90
47600;DHT22;33323;52.124;6.018;2023-04-24T15:24:28;10.30;99.90
47600;DHT22;33323;52.124;6.018;2023-04-24T15:26:55;10.50;99.90
47600;DHT22;33323;52.124;6.018;2023-04-24T15:29:25;10.50;99.90
47600;DHT22;33323;52.124;6.018;2023-04-24T15:31:54;10.40;99.90
47600;DHT22;33323;52.124;6.018;2023-04-24T15:34:21;10.50;99.90
47600;DHT22;33323;52.124;6.018;2023-04-24T15:36:48;10.50;99.90
47600;DHT22;33323;52.124;6.018;2023-04-24T15:39:15;10.40;99.90
47600;DHT22;33323;52.124;6.018;2023-04-24T15:41:42;10.30;99.90
47600;DHT22;33323;52.124;6.018;2023-04-24T15:44:09;10.40;99.90
47600;DHT22;33323;52.124;6.018;2023-04-24T15:46:37;10.60;99.90
47600;DHT22;33323;52.124;6.018;2023-04-24T15:49:04;10.60;99.90
47600;DHT22;33323;52.124;6.018;2023-04-24T15:51:31;10.60;99.90
47600;DHT22;33323;52.124;6.018;2023-04-24T15:53:59;10.50;99.90
47600;DHT22;33323;52.124;6.018;2023-04-24T15:56:26;10.40;99.90
47600;DHT22;33323;52.124;6.018;2023-04-24T15:58:59;10.40;99.90
47600;DHT22;33323;52.124;6.018;2023-04-24T16:01:27;10.40;99.90
47600;DHT22;33323;52.124;6.018;2023-04-24T16:03:54;10.60;99.90
47600;DHT22;33323;52.124;6.018;2023-04-24T16:06:21;10.80;99.90